Time;durP1;ratioP1;P1;durP2;ratioP2;P2;SDS_P1;SDS_P2;PMS_P1;PMS_P2;Temp;Humidity;BMP_temperature;BMP_pressure;BME280_temperature;BME280_humidity;BME280_pressure;Samples;Min_cycle;Max_cycle;Signal;HPM_P1;HPM_P2
2022/12/29 00:02:18;;;;;;;225.60;110.48;;;;;;;-0.75;75.38;95040.23;1800303;79;21085;-46
2022/12/29 00:04:45;;;;;;;185.32;96.78;;;;;;;-0.68;74.94;95037.59;1785962;79;21228;-46
2022/12/29 00:07:12;;;;;;;193.22;99.05;;;;;;;-0.64;75.36;95041.11;1780038;79;21010;-47
2022/12/29 00:09:38;;;;;;;199.40;106.07;;;;;;;-0.53;75.03;95044.72;1809352;78;21001;-46
2022/12/29 00:12:05;;;;;;;198.20;98.03;;;;;;;-0.50;74.60;95040.72;1785160;78;21053;-46
2022/12/29 00:17:19;;;;;;;207.75;99.87;;;;;;;-0.54;74.54;95045.87;1781061;79;21345;-47
2022/12/29 00:36:37;;;;;;;199.05;97.05;;;;;;;-0.59;75.21;95047.55;1804934;78;21187;-46
2022/12/29 00:44:47;;;;;;;187.25;94.32;;;;;;;-0.57;75.37;95052.77;1654054;86;21912;-45
2022/12/29 00:47:14;;;;;;;162.72;79.75;;;;;;;-0.47;75.68;95057.53;1634486;86;21374;-46
2022/12/29 00:49:41;;;;;;;190.97;93.60;;;;;;;-0.40;75.02;95047.37;1589183;88;21058;-45
2022/12/29 00:52:09;;;;;;;181.22;91.35;;;;;;;-0.42;75.08;95055.08;1646348;86;21081;-47
2022/12/29 00:54:39;;;;;;;187.15;92.22;;;;;;;-0.32;75.28;95054.40;1610839;87;21162;-47
2022/12/29 00:57:08;;;;;;;182.15;90.42;;;;;;;-0.27;74.86;95050.00;1573332;89;21472;-46
2022/12/29 00:59:38;;;;;;;185.00;93.90;;;;;;;-0.20;75.01;95050.09;1585722;89;21655;-46
2022/12/29 01:02:05;;;;;;;194.02;96.53;;;;;;;-0.20;74.17;95047.39;1514909;93;21270;-46
2022/12/29 01:04:32;;;;;;;177.00;87.37;;;;;;;-0.31;73.98;95047.28;1507357;93;21174;-47
2022/12/29 01:06:59;;;;;;;197.98;95.40;;;;;;;-0.38;74.13;95043.73;1502716;94;21064;-46
2022/12/29 01:12:10;;;;;;;189.62;92.08;;;;;;;-0.63;74.50;95044.05;1512965;93;21118;-46
2022/12/29 01:14:38;;;;;;;171.65;84.40;;;;;;;-0.72;74.96;95036.78;1523203;94;21544;-46
2022/12/29 01:17:05;;;;;;;134.82;67.12;;;;;;;-0.74;75.08;95034.44;1519214;93;21105;-46
2022/12/29 01:19:33;;;;;;;163.85;80.15;;;;;;;-0.73;75.30;95040.63;1509162;93;21146;-46
2022/12/29 01:22:01;;;;;;;196.82;94.13;;;;;;;-0.71;75.22;95032.94;1564714;91;22123;-47
2022/12/29 01:24:28;;;;;;;171.68;80.87;;;;;;;-0.76;74.95;95029.22;1568493;91;21104;-46
2022/12/29 01:26:55;;;;;;;168.43;84.25;;;;;;;-0.69;75.74;95026.59;1566936;90;21068;-47
2022/12/29 01:29:22;;;;;;;150.22;75.62;;;;;;;-0.54;75.57;95025.60;1566039;91;21036;-47
2022/12/29 01:31:49;;;;;;;167.05;82.65;;;;;;;-0.41;75.12;95019.56;1566157;90;21156;-47
2022/12/29 01:34:17;;;;;;;167.82;78.57;;;;;;;-0.40;74.51;95012.25;1574313;88;22302;-46
2022/12/29 01:36:44;;;;;;;155.65;75.62;;;;;;;-0.39;74.63;95011.10;1629556;87;21089;-47
2022/12/29 01:39:12;;;;;;;148.43;74.70;;;;;;;-0.34;74.59;95008.05;1625867;87;21095;-47
2022/12/29 01:41:39;;;;;;;154.42;74.92;;;;;;;-0.23;74.39;95009.70;1629006;87;21051;-47
2022/12/29 01:44:48;;;;;;;175.85;88.27;;;;;;;-0.26;73.78;95009.70;1629249;88;21141;-47
2022/12/29 01:47:26;;;;;;;165.92;86.57;;;;;;;-0.34;73.48;95004.00;1631820;87;21168;-46
2022/12/29 01:49:55;;;;;;;161.80;81.25;;;;;;;-0.56;73.49;95000.89;1630500;87;21018;-46
2022/12/29 01:52:22;;;;;;;169.15;86.78;;;;;;;-0.66;73.94;95000.19;1624557;87;21160;-46
2022/12/29 01:54:52;;;;;;;180.12;89.97;;;;;;;-0.77;73.97;94994.67;1680936;84;21047;-46
2022/12/29 01:57:23;;;;;;;193.82;93.40;;;;;;;-0.89;74.22;94999.55;1683806;83;21677;-47
2022/12/29 01:59:55;;;;;;;190.40;90.40;;;;;;;-0.96;75.27;94998.12;1776825;79;21094;-46
2022/12/29 02:02:21;;;;;;;182.68;88.25;;;;;;;-0.88;75.43;94995.70;1796045;79;21198;-45
2022/12/29 02:04:48;;;;;;;174.95;87.78;;;;;;;-0.88;75.02;94991.66;1790714;78;21037;-46
2022/12/29 02:07:20;;;;;;;178.45;86.40;;;;;;;-0.98;75.06;94982.88;1792556;78;21061;-45
2022/12/29 02:09:48;;;;;;;157.80;78.37;;;;;;;-0.99;75.41;94986.72;1792320;79;21105;-46
2022/12/29 02:12:16;;;;;;;193.37;96.87;;;;;;;-1.05;75.15;94996.27;1784026;79;21206;-46
2022/12/29 02:14:44;;;;;;;248.47;112.47;;;;;;;-1.16;75.53;94984.58;1786507;78;21673;-45
2022/12/29 02:17:55;;;;;;;209.52;97.80;;;;;;;-1.18;75.33;94982.83;1801371;78;20978;-46
2022/12/29 02:20:45;;;;;;;177.00;80.35;;;;;;;-1.27;75.08;94979.05;1800275;79;21060;-46
2022/12/29 02:23:47;;;;;;;194.30;92.22;;;;;;;-1.39;75.22;94978.48;1795806;78;21152;-46
2022/12/29 02:26:31;;;;;;;164.35;85.83;;;;;;;-1.46;76.14;94962.22;1786387;78;21240;-46
2022/12/29 02:29:47;;;;;;;174.60;85.12;;;;;;;-1.46;76.14;94962.22;1694433;83;20980;-47
2022/12/29 02:32:23;;;;;;;170.68;86.40;;;;;;;-1.34;76.35;94957.36;1707390;82;21533;-47
2022/12/29 02:34:55;;;;;;;178.90;82.90;;;;;;;-1.19;75.81;94955.61;1717330;82;21029;-46
2022/12/29 02:37:35;;;;;;;161.12;76.00;;;;;;;-1.09;75.77;94956.31;1690197;83;20991;-46
2022/12/29 02:40:24;;;;;;;98.37;53.87;;;;;;;-0.99;75.60;94959.72;1669940;83;21164;-46
2022/12/29 02:43:06;;;;;;;127.25;61.25;;;;;;;-0.78;76.07;94955.90;1641695;86;21590;-46
2022/12/29 02:46:00;;;;;;;129.53;63.05;;;;;;;-0.64;74.93;94959.52;1602600;89;21066;-46
2022/12/29 02:48:52;;;;;;;108.90;53.63;;;;;;;-0.72;74.30;94960.61;1597674;89;21115;-46
2022/12/29 02:51:36;;;;;;;111.55;56.68;;;;;;;-0.80;74.33;94956.84;1597446;88;21137;-46
2022/12/29 02:56:49;;;;;;;113.80;59.25;;;;;;;-0.64;74.36;94957.38;1597389;89;20983;-47
2022/12/29 02:59:16;;;;;;;99.58;53.23;;;;;;;-0.61;74.13;94952.61;1579982;89;21168;-46
2022/12/29 03:02:16;;;;;;;112.15;58.52;;;;;;;-0.70;73.74;94965.06;1555894;91;21032;-47
2022/12/29 03:05:18;;;;;;;128.50;60.10;;;;;;;-0.73;74.00;94953.66;1563137;91;21608;-47
2022/12/29 03:07:50;;;;;;;124.58;60.17;;;;;;;-0.66;74.05;94963.72;1561754;89;21281;-47
2022/12/29 03:10:34;;;;;;;106.55;54.27;;;;;;;-0.63;73.83;94963.01;1555425;90;21084;-46
2022/12/29 03:16:44;;;;;;;114.37;58.33;;;;;;;-0.55;73.67;94960.56;1562300;91;21066;-47
2022/12/29 03:19:15;;;;;;;115.80;64.70;;;;;;;-0.53;73.04;94956.92;1558518;90;21138;-46
2022/12/29 03:24:38;;;;;;;117.37;64.87;;;;;;;-0.68;73.23;94955.22;1602704;88;21128;-47
2022/12/29 03:27:06;;;;;;;126.30;61.18;;;;;;;-0.74;73.56;94963.46;1616087;88;21226;-46
2022/12/29 03:29:42;;;;;;;116.17;57.08;;;;;;;-0.76;73.51;94952.25;1611318;88;21106;-47
2022/12/29 03:32:09;;;;;;;118.05;58.80;;;;;;;-0.81;73.59;94952.00;1616679;88;21022;-48
2022/12/29 03:34:36;;;;;;;140.52;62.10;;;;;;;-0.85;73.66;94957.16;1665174;83;21484;-47
2022/12/29 03:37:13;;;;;;;179.65;76.10;;;;;;;-0.84;74.28;94956.01;1710406;83;21138;-46
2022/12/29 03:39:39;;;;;;;182.50;84.45;;;;;;;-0.88;73.67;94955.20;1669604;85;21086;-46
2022/12/29 03:42:10;;;;;;;249.70;104.80;;;;;;;-0.98;73.90;94953.18;1672947;83;21090;-46
2022/12/29 03:44:40;;;;;;;415.02;162.32;;;;;;;-0.96;74.19;94943.55;1714545;81;21565;-46
2022/12/29 03:47:08;;;;;;;425.53;164.57;;;;;;;-0.91;74.03;94939.75;1703160;82;21252;-47
2022/12/29 03:49:35;;;;;;;397.10;153.45;;;;;;;-0.89;73.74;94941.50;1724898;82;20955;-46
2022/12/29 03:52:04;;;;;;;397.82;152.05;;;;;;;-0.86;73.91;94946.16;1729973;82;21078;-47
2022/12/29 03:54:32;;;;;;;357.00;133.75;;;;;;;-0.81;73.83;94945.26;1695296;82;21021;-47
2022/12/29 03:57:00;;;;;;;352.22;135.68;;;;;;;-0.80;73.63;94951.45;1723992;81;20974;-47
2022/12/29 03:59:31;;;;;;;322.88;127.53;;;;;;;-0.74;73.97;94944.55;1722515;81;21242;-46
2022/12/29 04:01:58;;;;;;;307.02;122.85;;;;;;;-0.66;73.68;94936.72;1727928;81;21468;-47
2022/12/29 04:04:25;;;;;;;184.52;79.55;;;;;;;-0.59;73.55;94941.61;1734052;82;20998;-47
2022/12/29 04:06:52;;;;;;;243.73;99.80;;;;;;;-0.67;73.06;94935.16;1721545;82;21030;-46
2022/12/29 04:09:19;;;;;;;247.42;105.30;;;;;;;-0.79;73.09;94936.20;1735033;82;20970;-46
2022/12/29 04:11:47;;;;;;;243.07;98.58;;;;;;;-0.77;73.74;94933.15;1740065;81;21171;-46
2022/12/29 04:14:15;;;;;;;203.12;91.78;;;;;;;-0.77;73.30;94929.86;1717882;82;20984;-46
2022/12/29 04:16:41;;;;;;;216.80;94.85;;;;;;;-0.75;73.64;94928.15;1766971;79;21062;-46
2022/12/29 04:19:08;;;;;;;292.05;132.82;;;;;;;-0.71;73.59;94937.85;1801294;78;21002;-47
2022/12/29 04:21:37;;;;;;;257.23;116.00;;;;;;;-0.61;73.66;94940.45;1796990;78;20970;-46
2022/12/29 04:24:06;;;;;;;198.55;86.90;;;;;;;-0.52;73.20;94934.16;1802048;79;21243;-46
2022/12/29 04:26:34;;;;;;;211.22;93.78;;;;;;;-0.55;72.77;94934.91;1800561;78;21069;-47
2022/12/29 04:29:16;;;;;;;183.82;84.50;;;;;;;-0.66;72.80;94938.06;1730305;82;21012;-47
2022/12/29 04:32:00;;;;;;;191.28;85.30;;;;;;;-0.72;73.21;94935.51;1723677;82;20992;-46
2022/12/29 04:34:28;;;;;;;167.90;76.77;;;;;;;-0.81;73.26;94933.70;1726487;82;21072;-46
2022/12/29 04:36:55;;;;;;;163.12;77.32;;;;;;;-0.81;73.70;94930.41;1701817;82;21236;-48
2022/12/29 04:39:22;;;;;;;218.22;99.90;;;;;;;-0.77;73.80;94928.51;1727363;82;20999;-46
2022/12/29 04:41:49;;;;;;;248.87;112.00;;;;;;;-0.70;73.62;94929.16;1690952;82;21086;-48
2022/12/29 04:44:18;;;;;;;252.95;111.80;;;;;;;-0.74;73.21;94931.81;1723326;82;21045;-47
2022/12/29 04:46:58;;;;;;;153.72;78.30;;;;;;;-0.71;73.40;94933.01;1698843;83;21175;-48
2022/12/29 04:49:43;;;;;;;205.22;92.50;;;;;;;-0.65;73.58;94927.46;1696330;83;21290;-47
2022/12/29 04:52:24;;;;;;;199.35;94.10;;;;;;;-0.64;73.12;94923.05;1693492;83;21692;-48
2022/12/29 04:54:52;;;;;;;223.82;108.80;;;;;;;-0.63;73.16;94920.55;1692129;83;21061;-47
2022/12/29 04:57:20;;;;;;;220.65;102.67;;;;;;;-0.54;73.03;94928.34;1701782;83;21125;-47
2022/12/29 04:59:49;;;;;;;236.90;116.62;;;;;;;-0.56;72.54;94930.06;1691382;83;21108;-47
2022/12/29 05:02:16;;;;;;;217.72;103.22;;;;;;;-0.56;72.52;94926.01;1702249;83;21464;-47
2022/12/29 05:04:45;;;;;;;219.62;107.47;;;;;;;-0.54;72.48;94921.03;1695855;83;21037;-47
2022/12/29 05:07:12;;;;;;;223.25;108.35;;;;;;;-0.54;72.35;94922.95;1707227;83;21601;-47
2022/12/29 05:09:39;;;;;;;262.63;125.20;;;;;;;-0.56;72.08;94915.80;1704920;83;21082;-57
2022/12/29 05:12:06;;;;;;;163.95;80.45;;;;;;;-0.56;72.08;94913.85;1689696;83;21176;-50
2022/12/29 05:14:35;;;;;;;134.15;64.65;;;;;;;-0.52;72.22;94916.59;1710508;83;21457;-49
2022/12/29 05:18:17;;;;;;;107.15;51.65;;;;;;;-0.54;72.07;94924.30;1663981;83;20985;-49
2022/12/29 05:20:45;;;;;;;156.63;75.20;;;;;;;-0.57;72.10;94916.94;1705193;83;21545;-50
2022/12/29 05:23:12;;;;;;;165.62;81.80;;;;;;;-0.70;72.10;94929.16;1716015;82;21245;-48
2022/12/29 05:25:40;;;;;;;188.00;88.07;;;;;;;-0.82;72.33;94921.31;1721078;81;20962;-47
2022/12/29 05:28:15;;;;;;;154.07;76.97;;;;;;;-0.88;72.65;94923.59;1686471;83;21278;-47
2022/12/29 05:30:50;;;;;;;187.55;90.50;;;;;;;-0.93;72.53;94922.55;1689023;84;21143;-49
2022/12/29 05:33:19;;;;;;;152.68;78.90;;;;;;;-0.99;72.81;94936.19;1692451;83;21179;-49
2022/12/29 05:35:47;;;;;;;164.75;80.30;;;;;;;-0.97;73.20;94933.13;1692026;84;21644;-48
2022/12/29 05:38:14;;;;;;;146.90;74.72;;;;;;;-0.98;73.49;94939.68;1687772;83;21451;-54
2022/12/29 05:40:43;;;;;;;164.57;83.25;;;;;;;-0.86;73.97;94932.09;1701084;83;21498;-54
2022/12/29 05:43:17;;;;;;;183.90;92.47;;;;;;;-0.74;73.66;94924.30;1672572;83;21029;-46
2022/12/29 05:46:03;;;;;;;189.37;94.72;;;;;;;-0.66;73.36;94928.61;1709657;83;21080;-46
2022/12/29 05:48:32;;;;;;;207.60;103.92;;;;;;;-0.66;73.25;94935.36;1713471;83;21102;-49
2022/12/29 05:55:13;;;;;;;210.48;103.90;;;;;;;-0.58;73.17;94930.25;1708971;83;21356;-47
2022/12/29 05:57:41;;;;;;;193.80;98.00;;;;;;;-0.50;72.99;94934.55;1720056;83;21084;-46
2022/12/29 06:00:15;;;;;;;163.85;85.85;;;;;;;-0.47;72.65;94935.16;1717056;83;21190;-49
2022/12/29 06:02:43;;;;;;;169.75;88.03;;;;;;;-0.55;72.35;94935.66;1711930;81;21502;-47
2022/12/29 06:05:10;;;;;;;212.93;105.95;;;;;;;-0.58;72.76;94924.25;1734721;79;21115;-48
2022/12/29 06:07:39;;;;;;;268.57;123.67;;;;;;;-0.53;72.74;94929.90;1787405;79;21641;-47
2022/12/29 06:10:07;;;;;;;272.00;123.75;;;;;;;-0.55;72.81;94918.10;1802596;78;21011;-48
2022/12/29 06:12:36;;;;;;;222.12;98.20;;;;;;;-0.48;73.24;94929.55;1787570;79;20962;-48
2022/12/29 06:15:06;;;;;;;210.82;95.15;;;;;;;-0.36;73.15;94940.09;1805016;78;21095;-47
2022/12/29 06:17:34;;;;;;;210.63;103.47;;;;;;;-0.24;73.16;94937.88;1788367;80;21573;-48
2022/12/29 06:20:02;;;;;;;195.03;94.28;;;;;;;-0.14;72.72;94926.95;1786406;78;21058;-48
2022/12/29 06:22:29;;;;;;;146.40;78.12;;;;;;;-0.05;72.56;94928.77;1759484;79;21006;-48
2022/12/29 06:24:56;;;;;;;123.70;62.60;;;;;;;0.01;72.40;94923.41;1780256;79;21530;-49
2022/12/29 06:27:23;;;;;;;146.15;74.35;;;;;;;-0.02;72.33;94920.10;1780019;78;21092;-47
2022/12/29 06:29:52;;;;;;;150.12;72.80;;;;;;;0.03;71.98;94914.33;1762038;78;20942;-50
2022/12/29 06:32:25;;;;;;;132.65;67.85;;;;;;;0.09;72.12;94926.38;1772627;80;21137;-46
2022/12/29 06:34:54;;;;;;;154.50;71.62;;;;;;;0.18;71.91;94917.91;1757803;79;21018;-48
2022/12/29 06:37:21;;;;;;;138.45;68.62;;;;;;;0.24;71.86;94922.58;1781658;79;20970;-48
2022/12/29 06:39:48;;;;;;;128.62;66.10;;;;;;;0.29;71.81;94933.63;1806034;79;21123;-49
2022/12/29 06:42:15;;;;;;;141.50;71.60;;;;;;;0.29;71.79;94930.36;1786042;78;21038;-47
2022/12/29 06:44:45;;;;;;;164.13;82.33;;;;;;;0.32;72.10;94926.91;1771805;79;21896;-48
2022/12/29 06:47:12;;;;;;;142.75;78.62;;;;;;;0.47;72.20;94923.13;1772326;79;20959;-48
2022/12/29 06:49:39;;;;;;;139.68;68.30;;;;;;;0.62;71.69;94923.38;1768429;80;21053;-49
2022/12/29 06:52:07;;;;;;;118.53;59.55;;;;;;;0.72;71.41;94915.10;1755346;80;21143;-51
2022/12/29 06:54:34;;;;;;;193.78;97.10;;;;;;;0.80;71.24;94924.23;1743576;80;21573;-50
2022/12/29 06:57:02;;;;;;;196.55;95.90;;;;;;;0.82;70.78;94915.17;1757164;80;21237;-50
2022/12/29 06:59:30;;;;;;;157.45;82.65;;;;;;;0.85;71.06;94923.09;1757986;80;21094;-57
2022/12/29 07:01:57;;;;;;;152.57;82.02;;;;;;;0.97;71.27;94915.99;1738266;81;20978;-48
2022/12/29 07:04:25;;;;;;;159.48;81.87;;;;;;;1.12;70.85;94918.95;1755976;80;21052;-51
2022/12/29 07:06:52;;;;;;;174.97;90.77;;;;;;;1.22;71.03;94923.04;1760194;80;21604;-49
2022/12/29 07:09:19;;;;;;;230.47;114.08;;;;;;;1.32;70.35;94918.80;1780595;79;22044;-52
2022/12/29 07:11:46;;;;;;;254.63;126.35;;;;;;;1.36;70.10;94917.63;1764521;79;21062;-51
2022/12/29 07:14:15;;;;;;;232.87;120.70;;;;;;;1.38;69.85;94904.50;1774964;79;21150;-48
2022/12/29 07:16:42;;;;;;;266.20;140.73;;;;;;;1.39;70.07;94895.77;1763323;79;21065;-50
2022/12/29 07:19:09;;;;;;;222.52;123.90;;;;;;;1.41;70.41;94904.29;1765931;79;21156;-47
2022/12/29 07:21:37;;;;;;;264.00;143.47;;;;;;;1.47;70.66;94911.66;1778434;79;21790;-47
2022/12/29 07:24:05;;;;;;;265.62;140.97;;;;;;;1.55;70.92;94902.96;1766524;78;21308;-47
2022/12/29 07:26:33;;;;;;;265.35;141.12;;;;;;;1.62;70.85;94901.03;1770308;79;21013;-48
2022/12/29 07:29:01;;;;;;;239.55;130.70;;;;;;;1.65;70.79;94900.25;1782266;79;21014;-48
2022/12/29 07:31:28;;;;;;;299.95;159.00;;;;;;;1.69;71.27;94898.31;1764954;79;21042;-49
2022/12/29 07:33:55;;;;;;;330.27;167.98;;;;;;;1.80;71.83;94899.86;1763143;79;21431;-48
2022/12/29 07:36:22;;;;;;;331.13;172.28;;;;;;;2.00;71.61;94897.55;1764267;78;21105;-48
2022/12/29 07:38:58;;;;;;;375.65;189.75;;;;;;;2.08;70.99;94895.01;1787637;78;21616;-48
2022/12/29 07:41:32;;;;;;;271.40;143.75;;;;;;;2.13;71.44;94890.56;1748981;80;21175;-48
2022/12/29 07:44:09;;;;;;;251.18;134.78;;;;;;;2.25;70.75;94895.56;1674930;84;21795;-48
2022/12/29 07:46:38;;;;;;;251.35;138.00;;;;;;;2.24;70.50;94895.37;1577495;88;21150;-49
2022/12/29 07:49:10;;;;;;;244.07;138.18;;;;;;;2.23;70.63;94894.63;1572938;90;21220;-47
2022/12/29 07:51:38;;;;;;;273.82;151.68;;;;;;;2.29;70.98;94890.93;1568774;89;21100;-47
2022/12/29 07:54:06;;;;;;;260.05;145.38;;;;;;;2.36;70.76;94880.05;1560588;90;21288;-49
2022/12/29 07:56:34;;;;;;;256.32;146.32;;;;;;;2.44;70.74;94887.00;1563463;89;21534;-49
2022/12/29 07:59:02;;;;;;;238.82;134.50;;;;;;;2.44;70.57;94883.72;1564042;89;21216;-49
2022/12/29 08:01:28;;;;;;;243.22;134.95;;;;;;;2.39;70.56;94894.19;1555876;88;21112;-50
2022/12/29 08:03:55;;;;;;;235.02;135.97;;;;;;;2.36;70.80;94884.13;1576106;88;21154;-49
2022/12/29 08:06:22;;;;;;;246.95;138.35;;;;;;;2.36;70.89;94869.95;1583236;88;21073;-52
2022/12/29 08:08:49;;;;;;;268.73;146.60;;;;;;;2.38;71.19;94877.72;1576383;89;21117;-48
2022/12/29 08:11:16;;;;;;;264.63;143.25;;;;;;;2.47;71.12;94882.16;1560363;88;21283;-49
2022/12/29 08:13:43;;;;;;;231.28;131.15;;;;;;;2.49;70.48;94872.44;1580982;88;21125;-49
2022/12/29 08:16:12;;;;;;;235.55;132.03;;;;;;;2.57;70.05;94877.27;1572321;89;21691;-50
2022/12/29 08:18:39;;;;;;;274.82;149.68;;;;;;;2.64;69.79;94877.23;1555029;89;21141;-48
2022/12/29 08:21:05;;;;;;;264.42;143.87;;;;;;;2.73;69.57;94858.59;1545712;91;21176;-50
2022/12/29 08:23:33;;;;;;;220.88;125.67;;;;;;;2.88;69.73;94869.59;1566480;88;21319;-51
2022/12/29 08:26:04;;;;;;;336.90;177.75;;;;;;;3.11;69.29;94876.66;1624165;85;21101;-51
2022/12/29 08:28:32;;;;;;;266.08;144.40;;;;;;;3.33;68.61;94868.56;1624350;85;21050;-50
2022/12/29 08:31:01;;;;;;;225.13;127.53;;;;;;;3.61;68.06;94854.98;1660394;85;21195;-50
2022/12/29 08:33:28;;;;;;;233.87;133.57;;;;;;;3.76;67.54;94861.08;1656849;84;21124;-49
2022/12/29 08:36:02;;;;;;;201.37;112.62;;;;;;;3.80;67.76;94863.97;1671351;83;22486;-50
2022/12/29 08:38:29;;;;;;;221.93;124.70;;;;;;;3.78;67.18;94864.17;1678580;83;21054;-51
2022/12/29 08:40:57;;;;;;;262.38;145.43;;;;;;;3.82;66.95;94854.81;1712526;79;21072;-51
2022/12/29 08:43:27;;;;;;;189.28;110.95;;;;;;;3.88;66.75;94839.59;1762714;78;21137;-49
2022/12/29 08:45:54;;;;;;;176.60;104.07;;;;;;;3.98;66.19;94844.75;1701766;80;21048;-52
2022/12/29 08:48:21;;;;;;;149.47;88.97;;;;;;;4.09;65.78;94838.64;1734728;81;21189;-53
2022/12/29 08:50:49;;;;;;;192.65;113.50;;;;;;;4.11;64.59;94834.34;1715816;82;21057;-49
2022/12/29 08:53:17;;;;;;;201.77;119.60;;;;;;;4.13;64.61;94840.73;1719934;82;21062;-51
2022/12/29 08:55:50;;;;;;;176.10;100.78;;;;;;;4.19;64.82;94841.26;1701605;82;21089;-50
2022/12/29 08:58:21;;;;;;;258.07;151.47;;;;;;;4.26;64.78;94834.37;1642924;83;21606;-49
2022/12/29 09:00:52;;;;;;;231.65;134.07;;;;;;;4.38;64.33;94828.41;1655670;83;21275;-48
2022/12/29 09:03:21;;;;;;;187.75;107.85;;;;;;;4.71;64.25;94835.05;1673039;83;21089;-49
2022/12/29 09:05:51;;;;;;;225.75;128.45;;;;;;;4.99;63.36;94823.20;1659457;84;21128;-52
2022/12/29 09:08:18;;;;;;;264.70;150.65;;;;;;;5.29;63.71;94819.88;1653844;84;21657;-48
2022/12/29 09:10:45;;;;;;;282.80;167.50;;;;;;;5.43;63.27;94817.53;1646877;85;21184;-50
2022/12/29 09:13:21;;;;;;;270.12;161.07;;;;;;;5.39;63.09;94816.22;1637675;84;21047;-52
2022/12/29 09:15:59;;;;;;;245.45;144.30;;;;;;;5.33;62.43;94821.17;1626136;85;21653;-58
2022/12/29 09:18:27;;;;;;;208.95;125.47;;;;;;;5.45;62.12;94820.02;1661664;84;21589;-50
2022/12/29 09:21:01;;;;;;;210.75;124.95;;;;;;;5.77;61.51;94818.94;1641343;84;21703;-49
2022/12/29 09:23:29;;;;;;;175.42;106.65;;;;;;;6.14;60.63;94811.15;1647624;85;21732;-51
2022/12/29 09:25:56;;;;;;;169.87;105.05;;;;;;;6.67;59.74;94798.64;1649042;85;21228;-53
2022/12/29 09:28:23;;;;;;;164.82;97.20;;;;;;;7.23;57.84;94803.11;1651752;84;21173;-72
2022/12/29 09:30:55;;;;;;;172.62;89.90;;;;;;;7.91;56.02;94807.20;1644154;84;21236;-51
2022/12/29 09:33:21;;;;;;;84.45;47.65;;;;;;;8.52;54.16;94793.70;1654857;83;21677;-51
2022/12/29 09:36:08;;;;;;;;;;;;;;;;;;;;;
2022/12/29 09:38:28;;;;;;;43.42;27.17;;;;;;;9.29;47.07;94777.77;1582122;89;21178;-50
2022/12/29 09:41:35;;;;;;;54.40;23.52;;;;;;;9.32;46.20;94770.03;1578014;89;21302;-48
2022/12/29 09:44:10;;;;;;;24.87;11.83;;;;;;;9.21;45.91;94772.34;1575600;88;21654;-50
2022/12/29 09:46:46;;;;;;;45.52;28.50;;;;;;;9.04;44.02;94766.77;1585810;88;21093;-58
2022/12/29 09:49:29;;;;;;;20.20;13.18;;;;;;;8.96;45.27;94768.16;1535705;90;21770;-48
2022/12/29 09:52:19;;;;;;;24.77;10.65;;;;;;;8.90;43.81;94777.53;1588499;89;21408;-52
2022/12/29 09:54:54;;;;;;;17.60;9.88;;;;;;;8.89;42.99;94767.01;1562157;89;21942;-50
2022/12/29 09:57:42;;;;;;;26.62;12.00;;;;;;;8.89;42.81;94757.41;1583918;88;21088;-49
2022/12/29 10:00:16;;;;;;;28.65;13.25;;;;;;;8.88;43.31;94756.45;1583328;88;21618;-50
2022/12/29 10:02:48;;;;;;;54.27;16.40;;;;;;;8.89;43.15;94751.92;1669920;83;21128;-49
2022/12/29 10:05:29;;;;;;;32.93;14.47;;;;;;;8.96;43.08;94755.81;1640469;84;21111;-50
2022/12/29 10:08:10;;;;;;;32.00;12.07;;;;;;;9.00;42.84;94752.36;1587060;87;21119;-50
2022/12/29 10:10:43;;;;;;;24.43;12.10;;;;;;;9.01;42.79;94740.96;1570948;88;21049;-51
2022/12/29 10:13:36;;;;;;;17.82;10.98;;;;;;;9.05;42.30;94750.47;1574800;89;21276;-49
2022/12/29 10:16:14;;;;;;;51.75;13.32;;;;;;;9.09;41.76;94753.88;1576089;89;21147;-50
2022/12/29 10:18:56;;;;;;;20.52;11.97;;;;;;;9.08;41.53;94750.97;1582076;88;21554;-51
2022/12/29 10:22:01;;;;;;;21.62;12.78;;;;;;;9.10;41.16;94752.66;1633541;83;21069;-49
2022/12/29 10:24:32;;;;;;;33.60;15.88;;;;;;;9.13;41.14;94761.39;1685901;83;21094;-48
2022/12/29 10:27:17;;;;;;;76.97;16.93;;;;;;;9.18;40.60;94763.00;1684941;84;21021;-50
2022/12/29 10:29:55;;;;;;;26.25;13.78;;;;;;;9.28;40.72;94751.53;1691133;83;21162;-49
2022/12/29 10:32:39;;;;;;;30.80;12.40;;;;;;;9.37;39.91;94744.77;1645458;84;21144;-54
2022/12/29 10:35:14;;;;;;;19.15;12.45;;;;;;;9.40;40.33;94743.92;1618341;87;21082;-48
2022/12/29 10:38:14;;;;;;;19.20;11.55;;;;;;;9.41;40.01;94736.59;1599173;87;21114;-50
2022/12/29 10:40:45;;;;;;;24.92;10.25;;;;;;;9.52;39.38;94732.14;1582391;87;21235;-49
2022/12/29 10:43:24;;;;;;;21.87;7.87;;;;;;;9.65;38.60;94728.79;1606443;88;21145;-53
2022/12/29 10:45:55;;;;;;;8.90;6.83;;;;;;;9.73;37.90;94725.97;1591552;87;21210;-50
2022/12/29 10:48:26;;;;;;;26.82;8.30;;;;;;;9.84;36.77;94727.77;1598306;88;21112;-51
2022/12/29 10:50:55;;;;;;;21.37;9.15;;;;;;;9.92;36.76;94718.86;1536281;93;21089;-50
2022/12/29 10:53:26;;;;;;;16.55;9.45;;;;;;;10.00;37.10;94722.14;1520015;92;21085;-49
2022/12/29 10:55:52;;;;;;;14.30;8.15;;;;;;;10.02;36.85;94719.12;1542867;91;21128;-51
2022/12/29 10:58:19;;;;;;;45.25;8.75;;;;;;;10.07;36.70;94721.91;1525737;92;22528;-51
2022/12/29 11:00:52;;;;;;;11.55;7.67;;;;;;;10.14;36.65;94718.33;1545143;91;21666;-53
2022/12/29 11:03:54;;;;;;;40.83;8.88;;;;;;;10.23;36.67;94726.67;1531265;91;22179;-51
2022/12/29 11:06:25;;;;;;;28.80;8.73;;;;;;;10.29;36.80;94719.97;1499917;94;21063;-50
2022/12/29 11:09:00;;;;;;;64.80;12.50;;;;;;;10.38;36.79;94718.06;1470983;96;21173;-52
2022/12/29 11:11:35;;;;;;;19.32;9.83;;;;;;;10.43;36.53;94709.86;1476706;96;21234;-51
2022/12/29 11:14:21;;;;;;;29.57;10.70;;;;;;;10.43;36.14;94707.89;1439299;96;21109;-53
2022/12/29 11:16:59;;;;;;;24.98;9.75;;;;;;;10.34;36.36;94694.68;1465173;96;21104;-52
2022/12/29 11:19:30;;;;;;;16.73;8.73;;;;;;;10.19;36.65;94699.88;1467874;97;21120;-53
2022/12/29 11:22:15;;;;;;;18.07;7.57;;;;;;;9.98;36.17;94697.08;1484422;94;21686;-52
2022/12/29 11:24:46;;;;;;;15.00;7.70;;;;;;;9.82;36.77;94697.98;1438375;98;21158;-51
2022/12/29 11:27:23;;;;;;;10.35;6.53;;;;;;;9.69;37.11;94700.59;1410836;100;21168;-49
2022/12/29 11:29:53;;;;;;;18.67;7.05;;;;;;;9.57;36.88;94704.12;1473878;95;21125;-50
2022/12/29 11:32:24;;;;;;;9.45;5.30;;;;;;;9.44;37.15;94712.37;1431070;98;21250;-50
2022/12/29 11:34:51;;;;;;;10.08;5.78;;;;;;;9.37;36.97;94703.59;1473379;92;21505;-49
2022/12/29 11:37:29;;;;;;;10.25;6.22;;;;;;;9.29;37.44;94703.04;1522694;92;21206;-48
2022/12/29 11:40:07;;;;;;;15.65;7.42;;;;;;;9.24;37.42;94695.36;1515709;91;21525;-49
2022/12/29 11:42:49;;;;;;;31.70;8.53;;;;;;;9.22;38.37;94694.28;1517570;91;21525;-49
2022/12/29 11:45:26;;;;;;;15.50;7.90;;;;;;;9.13;39.06;94689.45;1525319;91;21620;-49
2022/12/29 11:47:56;;;;;;;21.87;8.08;;;;;;;9.09;39.12;94683.90;1496539;91;21642;-49
2022/12/29 11:50:27;;;;;;;23.55;8.45;;;;;;;9.07;39.65;94676.70;1525941;91;21373;-56
2022/12/29 11:53:08;;;;;;;15.10;7.83;;;;;;;9.04;39.97;94680.34;1518212;92;21223;-50
2022/12/29 11:55:34;;;;;;;16.70;8.83;;;;;;;9.04;40.20;94672.11;1502094;93;21243;-49
2022/12/29 11:58:02;;;;;;;20.20;9.65;;;;;;;9.05;40.28;94673.64;1486530;94;21200;-49
2022/12/29 12:00:32;;;;;;;18.90;12.58;;;;;;;9.06;40.53;94665.57;1500597;93;21228;-49
2022/12/29 12:03:18;;;;;;;82.08;40.50;;;;;;;9.10;40.46;94676.58;1538926;91;21328;-49
2022/12/29 12:05:53;;;;;;;80.35;43.15;;;;;;;9.12;40.64;94670.66;1541461;91;21627;-49
2022/12/29 12:08:56;;;;;;;38.05;23.07;;;;;;;9.17;41.29;94677.75;1552530;91;21141;-50
2022/12/29 12:11:40;;;;;;;86.57;21.60;;;;;;;9.22;41.38;94677.81;1569034;88;21569;-48
2022/12/29 12:14:26;;;;;;;75.87;13.83;;;;;;;9.30;41.33;94675.00;1585200;87;21678;-48
2022/12/29 12:16:58;;;;;;;33.48;12.58;;;;;;;9.38;41.28;94674.34;1514842;93;21343;-51
2022/12/29 12:19:50;;;;;;;45.98;28.40;;;;;;;9.46;41.41;94663.89;1477810;95;21249;-50
2022/12/29 12:22:45;;;;;;;94.03;54.25;;;;;;;9.54;42.19;94665.19;1494758;94;21162;-51